Archival Weather

Heathrow

London, United Kingdom (EGLL)

Report from: Sunday, March 19, 2023 3:20 PM GMT
Current time: Saturday, June 22, 2024 12:37 AM BST

Current weather – Weather history – Daily summaries
Weather forecast

Temperature10.0°C (50.0°F)
Wind chill7.7°C (45.9°F)
Dew point4.0°C (39.2°F)
Winds 9 kts (4.6 m/s, 10.4 mph) West (280°)
Visibility6.2 mi. (10 km)
Clouds Ceiling: Broken clouds 3,400 ft. (1,036 m)
Altimeter30.03 in.Hg (1017 mB)
Relative humidity66 %
Density altitude-605 ft. (-184 m)
Remarks Fully automated report
Flight conditions Visual Meteorological Conditions
Raw dataEGLL 191520Z AUTO 28009KT 9999 BKN034 10/04 Q1017
An error has occurred. This application may no longer respond until reloaded. Reload 🗙